createdAt,value
2017-06-26T00:01:00.470Z,2.53
2017-06-26T00:03:27.299Z,2.10
2017-06-26T00:05:54.187Z,2.10
2017-06-26T00:08:21.024Z,2.00
2017-06-26T00:10:47.840Z,2.20
2017-06-26T00:13:14.794Z,2.30
2017-06-26T00:15:41.611Z,2.70
2017-06-26T00:18:09.175Z,2.47
2017-06-26T00:20:36.059Z,2.07
2017-06-26T00:23:02.900Z,2.10
2017-06-26T00:25:29.798Z,1.80
2017-06-26T00:27:56.632Z,1.50
2017-06-26T00:30:24.216Z,2.13
2017-06-26T00:32:51.127Z,1.90
2017-06-26T00:35:18.035Z,2.63
2017-06-26T00:37:44.846Z,2.07
2017-06-26T00:40:11.757Z,2.00
2017-06-26T00:42:38.572Z,2.60
2017-06-26T00:45:05.411Z,2.60
2017-06-26T00:47:32.339Z,2.70
2017-06-26T00:49:59.178Z,2.40
2017-06-26T00:52:26.120Z,2.33
2017-06-26T00:54:53.020Z,2.27
2017-06-26T00:57:19.851Z,2.60
2017-06-26T00:59:46.682Z,2.53
2017-06-26T01:02:13.629Z,3.70
2017-06-26T01:04:40.476Z,2.87
2017-06-26T01:07:07.295Z,2.77
2017-06-26T01:09:34.299Z,3.13
2017-06-26T01:12:01.146Z,3.07
2017-06-26T01:14:28.726Z,2.70
2017-06-26T01:16:56.364Z,2.70
2017-06-26T01:19:23.244Z,3.20
2017-06-26T01:21:50.084Z,3.53
2017-06-26T01:24:17.020Z,2.83
2017-06-26T01:26:43.854Z,3.13
2017-06-26T01:29:11.430Z,3.23
2017-06-26T01:31:39.055Z,2.80
2017-06-26T01:34:05.965Z,3.10
2017-06-26T01:36:32.882Z,3.70
2017-06-26T01:39:00.527Z,3.57
2017-06-26T01:41:27.463Z,3.47
2017-06-26T01:43:54.293Z,3.77
2017-06-26T01:46:21.119Z,3.47
2017-06-26T01:48:48.030Z,3.13
2017-06-26T01:51:14.850Z,3.30
2017-06-26T01:53:41.681Z,3.77
2017-06-26T01:56:08.581Z,3.60
2017-06-26T01:58:35.398Z,3.23
2017-06-26T02:01:02.971Z,3.80
2017-06-26T02:03:29.867Z,3.47
2017-06-26T02:05:56.695Z,3.40
2017-06-26T02:08:23.523Z,3.60
2017-06-26T02:10:50.496Z,3.80
2017-06-26T02:13:17.315Z,3.30
2017-06-26T02:15:44.155Z,3.87
2017-06-26T02:18:11.057Z,3.23
2017-06-26T02:20:38.646Z,3.17
2017-06-26T02:23:05.488Z,3.17
2017-06-26T02:25:32.391Z,3.30
2017-06-26T02:27:59.214Z,3.93
2017-06-26T02:30:26.038Z,3.67
2017-06-26T02:32:52.964Z,3.87
2017-06-26T02:35:19.774Z,3.40
2017-06-26T02:37:46.618Z,3.70
2017-06-26T02:40:13.543Z,3.90
2017-06-26T02:42:40.372Z,3.23
2017-06-26T02:45:07.215Z,3.73
2017-06-26T02:47:34.096Z,3.50
2017-06-26T02:50:00.992Z,3.47
2017-06-26T02:52:27.978Z,3.93
2017-06-26T02:54:54.866Z,4.10
2017-06-26T02:57:21.695Z,3.87
2017-06-26T02:59:49.345Z,3.63
2017-06-26T03:02:16.171Z,4.07
2017-06-26T03:04:42.994Z,3.80
2017-06-26T03:07:09.939Z,4.10
2017-06-26T03:09:36.758Z,3.77
2017-06-26T03:12:03.590Z,3.97
2017-06-26T03:14:30.526Z,3.60
2017-06-26T03:16:58.087Z,4.30
2017-06-26T03:19:24.906Z,3.67
2017-06-26T03:21:51.791Z,3.83
2017-06-26T03:24:18.627Z,3.70
2017-06-26T03:26:45.448Z,4.03
2017-06-26T03:29:12.343Z,4.30
2017-06-26T03:31:39.167Z,3.87
2017-06-26T03:34:05.996Z,4.27
2017-06-26T03:36:33.688Z,3.97
2017-06-26T03:39:00.578Z,3.90
2017-06-26T03:41:27.422Z,4.40
2017-06-26T03:43:54.322Z,3.77
2017-06-26T03:46:21.160Z,3.40
2017-06-26T03:48:48.074Z,4.57
2017-06-26T03:51:15.647Z,4.37
2017-06-26T03:53:43.228Z,4.30
2017-06-26T03:56:10.126Z,4.27
2017-06-26T03:58:36.951Z,4.03
2017-06-26T04:01:03.790Z,3.37
2017-06-26T04:03:30.679Z,3.50
2017-06-26T04:05:58.611Z,3.90
2017-06-26T04:08:25.530Z,4.40
2017-06-26T04:10:52.370Z,4.30
2017-06-26T04:13:19.204Z,3.50
2017-06-26T04:15:46.104Z,4.00
2017-06-26T04:18:12.932Z,3.80
2017-06-26T04:20:39.756Z,4.70
2017-06-26T04:23:06.656Z,4.30
2017-06-26T04:25:35.574Z,4.30
2017-06-26T04:28:12.156Z,4.27
2017-06-26T04:30:39.061Z,4.10
2017-06-26T04:33:06.687Z,4.00
2017-06-26T04:35:34.951Z,4.30
2017-06-26T04:38:01.761Z,4.70
2017-06-26T04:40:36.957Z,4.20
2017-06-26T04:43:16.222Z,3.93
2017-06-26T04:45:45.092Z,3.50
2017-06-26T04:48:12.224Z,3.93
2017-06-26T04:50:39.121Z,3.93
2017-06-26T04:53:05.965Z,3.97
2017-06-26T04:55:32.859Z,3.60
2017-06-26T04:57:59.654Z,4.10
2017-06-26T05:00:26.507Z,3.87
2017-06-26T05:02:53.468Z,4.07
2017-06-26T05:05:20.387Z,4.33
2017-06-26T05:07:47.209Z,3.30
2017-06-26T05:10:14.289Z,3.27
2017-06-26T05:12:41.176Z,2.97
2017-06-26T05:15:08.072Z,3.67
2017-06-26T05:17:34.915Z,3.67
2017-06-26T05:20:01.804Z,3.60
2017-06-26T05:22:28.635Z,3.07
2017-06-26T05:24:55.527Z,3.30
2017-06-26T05:27:22.347Z,3.27
2017-06-26T05:29:49.226Z,3.80
2017-06-26T05:32:16.176Z,3.27
2017-06-26T05:34:43.728Z,3.63
2017-06-26T05:37:11.388Z,4.10
2017-06-26T05:39:38.952Z,3.60
2017-06-26T05:42:06.527Z,3.40
2017-06-26T05:44:33.496Z,4.00
2017-06-26T05:47:00.330Z,4.07
2017-06-26T05:49:27.224Z,3.93
2017-06-26T05:51:54.042Z,3.67
2017-06-26T05:54:20.970Z,4.00
2017-06-26T05:56:48.148Z,3.90
2017-06-26T05:59:15.044Z,3.83
2017-06-26T06:01:42.675Z,3.80
2017-06-26T06:04:09.515Z,3.37
2017-06-26T06:06:36.434Z,4.07
2017-06-26T06:09:03.392Z,3.97
2017-06-26T06:11:30.211Z,3.07
2017-06-26T06:13:57.125Z,3.73
2017-06-26T06:16:24.708Z,3.37
2017-06-26T06:18:51.610Z,4.27
2017-06-26T06:21:18.995Z,3.60
2017-06-26T06:23:46.634Z,3.57
2017-06-26T06:26:13.523Z,3.43
2017-06-26T06:28:40.335Z,3.60
2017-06-26T06:31:07.966Z,3.57
2017-06-26T06:33:34.917Z,3.50
2017-06-26T06:36:01.902Z,3.93
2017-06-26T06:38:29.544Z,3.70
2017-06-26T06:40:56.366Z,3.90
2017-06-26T06:43:23.399Z,3.07
2017-06-26T06:46:03.553Z,4.20
2017-06-26T06:48:31.474Z,3.57
2017-06-26T06:50:59.050Z,3.57
2017-06-26T06:53:26.014Z,3.70
2017-06-26T06:55:52.840Z,3.60
2017-06-26T06:58:19.676Z,3.70
2017-06-26T07:00:46.599Z,3.20
2017-06-26T07:03:13.448Z,3.17
2017-06-26T07:05:40.262Z,3.40
2017-06-26T07:08:07.158Z,3.70
2017-06-26T07:10:34.064Z,3.40
2017-06-26T07:13:00.888Z,3.23
2017-06-26T07:15:27.790Z,4.30
2017-06-26T07:17:54.835Z,2.87
2017-06-26T07:20:21.746Z,2.87
2017-06-26T07:22:48.715Z,3.70
2017-06-26T07:25:16.291Z,3.10
2017-06-26T07:27:43.888Z,3.00
2017-06-26T07:30:10.783Z,2.27
2017-06-26T07:32:37.701Z,2.00
2017-06-26T07:35:04.594Z,2.50
2017-06-26T07:37:31.411Z,2.50
2017-06-26T07:39:59.043Z,2.83
2017-06-26T07:42:25.959Z,2.53
2017-06-26T07:44:52.855Z,2.50
2017-06-26T07:47:19.702Z,2.23
2017-06-26T07:49:46.586Z,2.63
2017-06-26T07:52:13.386Z,2.60
2017-06-26T07:54:40.602Z,2.30
2017-06-26T07:57:07.431Z,2.70
2017-06-26T07:59:34.247Z,2.37
2017-06-26T08:02:01.133Z,2.80
2017-06-26T08:04:27.944Z,2.50
2017-06-26T08:06:54.846Z,2.27
2017-06-26T08:09:22.571Z,2.30
2017-06-26T08:11:49.463Z,2.70
2017-06-26T08:14:16.366Z,2.23
2017-06-26T08:16:43.193Z,2.23
2017-06-26T08:19:10.071Z,2.70
2017-06-26T08:21:36.955Z,2.60
2017-06-26T08:24:03.854Z,2.00
2017-06-26T08:26:30.750Z,2.30
2017-06-26T08:28:58.314Z,2.30
2017-06-26T08:31:25.279Z,1.70
2017-06-26T08:33:52.118Z,2.00
2017-06-26T08:36:19.763Z,2.27
2017-06-26T08:38:47.319Z,2.20
2017-06-26T08:41:14.135Z,2.47
2017-06-26T08:43:41.046Z,2.13
2017-06-26T08:46:07.871Z,2.03
2017-06-26T08:48:35.510Z,1.90
2017-06-26T08:51:02.346Z,2.40
2017-06-26T08:53:29.150Z,1.97
2017-06-26T08:56:06.946Z,2.13
2017-06-26T08:58:34.992Z,1.80
2017-06-26T09:01:02.151Z,2.50
2017-06-26T09:03:29.327Z,1.90
2017-06-26T09:05:56.430Z,3.40
2017-06-26T09:08:23.566Z,2.63
2017-06-26T09:10:51.059Z,2.40
2017-06-26T09:13:18.484Z,2.43
2017-06-26T09:15:45.455Z,1.80
2017-06-26T09:18:12.282Z,1.93
2017-06-26T09:20:54.948Z,1.93
2017-06-26T09:23:21.767Z,1.90
2017-06-26T09:25:48.692Z,2.27
2017-06-26T09:28:16.274Z,2.03
2017-06-26T09:30:43.089Z,2.53
2017-06-26T09:33:10.011Z,1.57
2017-06-26T09:35:36.884Z,1.67
2017-06-26T09:38:04.444Z,1.23
2017-06-26T09:40:32.784Z,1.30
2017-06-26T09:42:59.629Z,1.63
2017-06-26T09:45:28.008Z,1.70
2017-06-26T09:47:55.871Z,1.67
2017-06-26T09:50:23.880Z,1.83
2017-06-26T09:52:51.809Z,2.70
2017-06-26T09:55:20.466Z,6.00
2017-06-26T09:57:53.145Z,2.20
2017-06-26T10:00:22.389Z,2.30
2017-06-26T10:02:52.030Z,1.80
2017-06-26T10:05:20.790Z,1.93
2017-06-26T10:07:48.056Z,1.90
2017-06-26T10:10:14.876Z,1.57
2017-06-26T10:12:49.354Z,1.80
2017-06-26T10:15:16.334Z,1.90
2017-06-26T10:17:44.381Z,1.90
2017-06-26T10:20:12.204Z,1.50
2017-06-26T10:22:39.365Z,1.77
2017-06-26T10:25:06.983Z,2.20
2017-06-26T10:27:33.942Z,2.20
2017-06-26T10:30:00.778Z,1.80
2017-06-26T10:32:28.619Z,1.50
2017-06-26T10:34:55.467Z,1.93
2017-06-26T10:37:23.930Z,1.57
2017-06-26T10:39:50.907Z,1.83
2017-06-26T10:42:17.735Z,1.67
2017-06-26T10:44:53.472Z,1.70
2017-06-26T10:47:21.047Z,1.57
2017-06-26T10:49:47.882Z,1.70
2017-06-26T10:52:17.380Z,1.63
2017-06-26T10:54:45.118Z,2.10
2017-06-26T10:57:12.059Z,27.73
2017-06-26T10:59:38.910Z,5.87
2017-06-26T11:02:05.916Z,2.40
2017-06-26T11:04:33.820Z,2.00
2017-06-26T11:07:03.360Z,2.13
2017-06-26T11:09:32.955Z,2.20
2017-06-26T11:12:10.718Z,2.67
2017-06-26T11:14:39.601Z,1.70
2017-06-26T11:17:07.592Z,2.77
2017-06-26T11:19:42.817Z,2.87
2017-06-26T11:22:11.051Z,3.73
2017-06-26T11:24:38.802Z,2.70
2017-06-26T11:27:05.630Z,2.33
2017-06-26T11:29:32.908Z,2.20
2017-06-26T11:32:00.574Z,1.80
2017-06-26T11:34:29.424Z,3.17
2017-06-26T11:36:58.667Z,2.50
2017-06-26T11:39:26.454Z,4.90
2017-06-26T11:41:53.267Z,2.20
2017-06-26T11:44:20.931Z,7.00
2017-06-26T11:46:49.418Z,13.97
2017-06-26T11:49:16.950Z,17.37
2017-06-26T11:51:43.960Z,4.60
2017-06-26T11:54:12.944Z,4.80
2017-06-26T11:56:39.883Z,10.47
2017-06-26T11:59:06.796Z,7.30
2017-06-26T12:01:33.667Z,2.30
2017-06-26T12:04:01.321Z,2.43
2017-06-26T12:06:29.559Z,3.23
2017-06-26T12:08:56.782Z,4.27
2017-06-26T12:11:23.656Z,1.50
2017-06-26T12:13:50.546Z,1.70
2017-06-26T12:16:18.116Z,3.03
2017-06-26T12:18:45.007Z,2.07
2017-06-26T12:21:16.594Z,2.07
2017-06-26T12:23:44.920Z,1.50
2017-06-26T12:26:11.999Z,1.43
2017-06-26T12:28:39.947Z,1.80
2017-06-26T12:31:08.706Z,1.87
2017-06-26T12:35:24.885Z,1.70
2017-06-26T12:37:52.624Z,2.00
2017-06-26T12:40:21.154Z,1.87
2017-06-26T12:43:01.480Z,1.90
2017-06-26T12:45:39.381Z,1.80
2017-06-26T12:48:18.750Z,1.93
2017-06-26T12:50:45.920Z,1.67
2017-06-26T12:53:14.945Z,2.07
2017-06-26T12:55:42.046Z,1.90
2017-06-26T12:58:08.882Z,1.93
2017-06-26T13:00:35.763Z,2.00
2017-06-26T13:03:03.374Z,1.90
2017-06-26T13:05:30.967Z,2.13
2017-06-26T13:07:57.935Z,1.90
2017-06-26T13:10:25.168Z,1.73
2017-06-26T13:12:52.011Z,2.20
2017-06-26T13:15:21.283Z,1.40
2017-06-26T13:17:48.280Z,2.00
2017-06-26T13:20:15.194Z,1.80
2017-06-26T13:22:42.361Z,2.20
2017-06-26T13:25:09.510Z,1.80
2017-06-26T13:27:36.478Z,2.10
2017-06-26T13:30:03.319Z,3.67
2017-06-26T13:32:30.497Z,2.20
2017-06-26T13:34:57.504Z,2.40
2017-06-26T13:37:24.395Z,2.13
2017-06-26T13:39:51.314Z,2.20
2017-06-26T13:42:18.146Z,1.67
2017-06-26T13:44:45.181Z,1.97
2017-06-26T13:47:12.692Z,1.80
2017-06-26T13:49:40.319Z,2.10
2017-06-26T13:52:10.968Z,1.70
2017-06-26T13:54:37.915Z,2.00
2017-06-26T13:57:04.838Z,1.80
2017-06-26T13:59:31.642Z,1.70
2017-06-26T14:01:58.459Z,1.80
2017-06-26T14:04:25.354Z,1.90
2017-06-26T14:06:52.195Z,2.13
2017-06-26T14:09:19.863Z,1.70
2017-06-26T14:11:46.703Z,1.60
2017-06-26T14:14:14.311Z,1.53
2017-06-26T14:16:41.204Z,1.77
2017-06-26T14:19:09.355Z,2.30
2017-06-26T14:21:36.727Z,2.10
2017-06-26T14:24:04.325Z,2.50
2017-06-26T14:26:31.312Z,2.43
2017-06-26T14:28:58.171Z,2.77
2017-06-26T14:31:25.823Z,2.37
2017-06-26T14:33:52.749Z,2.30
2017-06-26T14:36:19.580Z,2.63
2017-06-26T14:38:46.398Z,2.60
2017-06-26T14:41:13.307Z,3.00
2017-06-26T14:43:40.199Z,2.63
2017-06-26T14:46:07.019Z,2.70
2017-06-26T14:48:34.662Z,2.80
2017-06-26T14:51:01.695Z,2.70
2017-06-26T14:53:29.579Z,2.97
2017-06-26T14:55:56.553Z,2.97
2017-06-26T14:58:23.387Z,3.00
2017-06-26T15:00:50.335Z,2.70
2017-06-26T15:03:17.916Z,3.07
2017-06-26T15:05:45.017Z,2.57
2017-06-26T15:08:13.531Z,2.97
2017-06-26T15:10:41.762Z,2.90
2017-06-26T15:13:09.398Z,5.60
2017-06-26T15:15:36.357Z,2.80
2017-06-26T15:18:03.281Z,3.10
2017-06-26T15:20:30.238Z,3.20
2017-06-26T15:22:59.194Z,3.90
2017-06-26T15:25:28.726Z,2.77
2017-06-26T15:27:56.910Z,4.47
2017-06-26T15:30:23.945Z,4.73
2017-06-26T15:33:02.886Z,3.40
2017-06-26T15:35:41.918Z,3.10
2017-06-26T15:38:10.306Z,3.27
2017-06-26T15:40:38.058Z,3.20
2017-06-26T15:43:06.089Z,2.93
2017-06-26T15:45:34.172Z,3.17
2017-06-26T15:48:02.764Z,3.00
2017-06-26T15:50:29.791Z,3.30
2017-06-26T15:52:57.442Z,3.17
2017-06-26T15:55:24.983Z,2.90
2017-06-26T15:57:52.054Z,2.70
2017-06-26T16:00:18.866Z,3.60
2017-06-26T16:02:47.152Z,2.77
2017-06-26T16:05:14.597Z,3.33
2017-06-26T16:07:43.067Z,3.53
2017-06-26T16:10:12.128Z,3.30
2017-06-26T16:12:41.797Z,3.00
2017-06-26T16:15:10.594Z,3.47
2017-06-26T16:17:39.910Z,2.83
2017-06-26T16:20:11.187Z,3.00
2017-06-26T16:22:41.562Z,3.30
2017-06-26T16:25:08.680Z,3.37
2017-06-26T16:27:35.577Z,3.20
2017-06-26T16:30:13.791Z,3.40
2017-06-26T16:32:55.753Z,3.40
2017-06-26T16:35:23.631Z,5.23
2017-06-26T16:37:51.731Z,4.37
2017-06-26T16:40:18.551Z,3.60
2017-06-26T16:42:45.481Z,3.53
2017-06-26T16:45:12.302Z,3.70
2017-06-26T16:47:39.196Z,3.63
2017-06-26T16:50:06.102Z,3.63
2017-06-26T16:52:32.928Z,3.30
2017-06-26T16:54:59.810Z,3.67
2017-06-26T16:57:26.714Z,4.07
2017-06-26T16:59:53.629Z,4.10
2017-06-26T17:02:20.531Z,4.93
2017-06-26T17:04:47.404Z,4.50
2017-06-26T17:07:14.348Z,4.77
2017-06-26T17:09:41.189Z,4.60
2017-06-26T17:12:08.129Z,4.57
2017-06-26T17:14:34.956Z,4.73
2017-06-26T17:17:01.820Z,5.53
2017-06-26T17:19:28.727Z,6.40
2017-06-26T17:21:55.596Z,5.50
2017-06-26T17:24:22.558Z,6.37
2017-06-26T17:26:59.074Z,5.30
2017-06-26T17:29:27.128Z,6.13
2017-06-26T17:31:54.640Z,5.80
2017-06-26T17:34:21.555Z,5.77
2017-06-26T17:36:49.214Z,5.80
2017-06-26T17:39:16.793Z,5.40
2017-06-26T17:41:43.687Z,6.67
2017-06-26T17:44:10.529Z,6.57
2017-06-26T17:46:37.470Z,6.33
2017-06-26T17:49:04.318Z,5.90
2017-06-26T17:51:31.248Z,6.40
2017-06-26T17:53:58.071Z,5.83
2017-06-26T17:56:24.976Z,6.80
2017-06-26T17:58:52.447Z,7.47
2017-06-26T18:01:20.023Z,6.60
2017-06-26T18:03:46.937Z,6.10
2017-06-26T18:06:13.793Z,6.30
2017-06-26T18:08:41.435Z,5.63
2017-06-26T18:11:11.419Z,6.23
2017-06-26T18:13:38.343Z,6.93
2017-06-26T18:16:05.227Z,6.17
2017-06-26T18:18:32.152Z,6.50
2017-06-26T18:20:58.998Z,7.00
2017-06-26T18:23:25.902Z,6.40
2017-06-26T18:25:53.551Z,5.57
2017-06-26T18:28:20.474Z,6.27
2017-06-26T18:30:47.576Z,6.53
2017-06-26T18:33:14.408Z,6.90
2017-06-26T18:35:41.237Z,6.83
2017-06-26T18:38:08.242Z,5.97
2017-06-26T18:40:35.063Z,6.40
2017-06-26T18:43:01.911Z,7.00
2017-06-26T18:45:28.822Z,7.33
2017-06-26T18:47:56.919Z,6.90
2017-06-26T18:50:23.834Z,7.10
2017-06-26T18:52:51.495Z,6.63
2017-06-26T18:55:18.303Z,7.30
2017-06-26T18:57:45.227Z,7.87
2017-06-26T19:00:12.084Z,6.97
2017-06-26T19:02:38.974Z,7.97
2017-06-26T19:05:05.935Z,8.00
2017-06-26T19:07:33.568Z,7.17
2017-06-26T19:10:00.474Z,7.63
2017-06-26T19:12:27.320Z,8.20
2017-06-26T19:14:54.163Z,8.17
2017-06-26T19:17:21.085Z,8.23
2017-06-26T19:19:48.751Z,7.40
2017-06-26T19:22:15.591Z,6.93
2017-06-26T19:24:43.194Z,8.10
2017-06-26T19:27:10.155Z,7.93
2017-06-26T19:29:36.978Z,7.33
2017-06-26T19:32:03.912Z,8.53
2017-06-26T19:34:30.731Z,8.23
2017-06-26T19:36:58.287Z,8.93
2017-06-26T19:39:25.921Z,9.00
2017-06-26T19:41:52.823Z,9.00
2017-06-26T19:44:19.764Z,9.33
2017-06-26T19:46:46.592Z,9.10
2017-06-26T19:49:14.247Z,9.40
2017-06-26T19:51:41.071Z,8.50
2017-06-26T19:54:07.963Z,8.80
2017-06-26T19:56:34.864Z,8.83
2017-06-26T19:59:01.677Z,9.20
2017-06-26T20:01:28.626Z,10.70
2017-06-26T20:03:55.458Z,10.20
2017-06-26T20:06:22.300Z,10.40
2017-06-26T20:08:49.247Z,10.37
2017-06-26T20:11:16.295Z,10.50
2017-06-26T20:13:43.134Z,10.30
2017-06-26T20:16:10.054Z,12.03
2017-06-26T20:18:36.900Z,10.27
2017-06-26T20:21:03.800Z,10.80
2017-06-26T20:23:30.701Z,12.20
2017-06-26T20:25:57.558Z,9.77
2017-06-26T20:28:24.487Z,11.80
2017-06-26T20:30:51.421Z,11.90
2017-06-26T20:33:18.519Z,10.57
2017-06-26T20:35:45.432Z,11.10
2017-06-26T20:38:12.238Z,10.93
2017-06-26T20:40:39.866Z,11.33
2017-06-26T20:43:06.767Z,10.80
2017-06-26T20:45:33.686Z,11.57
2017-06-26T20:48:00.496Z,11.90
2017-06-26T20:50:27.344Z,12.57
2017-06-26T20:52:54.245Z,10.80
2017-06-26T20:55:21.084Z,11.77
2017-06-26T20:57:48.006Z,10.63
2017-06-26T21:00:15.011Z,11.50
2017-06-26T21:02:44.452Z,11.43
2017-06-26T21:05:26.330Z,11.57
2017-06-26T21:08:09.986Z,10.40
2017-06-26T21:10:51.126Z,10.83
2017-06-26T21:13:33.900Z,10.83
2017-06-26T21:16:02.610Z,12.37
2017-06-26T21:18:29.572Z,11.67
2017-06-26T21:21:09.504Z,11.70
2017-06-26T21:23:38.076Z,10.30
2017-06-26T21:26:21.333Z,12.23
2017-06-26T21:28:49.235Z,13.00
2017-06-26T21:31:16.091Z,11.90
2017-06-26T21:33:44.553Z,11.10
2017-06-26T21:36:11.382Z,11.00
2017-06-26T21:38:53.304Z,11.47
2017-06-26T21:41:21.114Z,11.47
2017-06-26T21:44:01.750Z,12.00
2017-06-26T21:46:32.477Z,11.90
2017-06-26T21:48:59.458Z,10.97
2017-06-26T21:51:27.023Z,12.03
2017-06-26T21:53:53.863Z,10.77
2017-06-26T21:56:21.554Z,11.67
2017-06-26T21:58:48.394Z,12.03
2017-06-26T22:01:15.295Z,10.90
2017-06-26T22:03:42.119Z,11.30
2017-06-26T22:06:09.020Z,11.03
2017-06-26T22:08:35.846Z,11.60
2017-06-26T22:11:02.666Z,11.97
2017-06-26T22:13:29.590Z,12.47
2017-06-26T22:15:56.414Z,11.10
2017-06-26T22:18:23.323Z,11.53
2017-06-26T22:20:50.143Z,11.70
2017-06-26T22:23:17.038Z,10.83
2017-06-26T22:25:43.863Z,11.70
2017-06-26T22:28:10.766Z,29.73
2017-06-26T22:30:38.023Z,13.80
2017-06-26T22:33:05.711Z,11.90
2017-06-26T22:35:33.306Z,12.43
2017-06-26T22:38:00.212Z,13.57
2017-06-26T22:40:27.800Z,12.77
2017-06-26T22:42:54.695Z,13.30
2017-06-26T22:45:21.723Z,12.40
2017-06-26T22:47:48.607Z,12.87
2017-06-26T22:50:15.445Z,12.93
2017-06-26T22:52:42.343Z,12.53
2017-06-26T22:55:09.160Z,12.53
2017-06-26T22:57:36.050Z,12.30
2017-06-26T23:00:02.867Z,13.03
2017-06-26T23:02:29.814Z,11.67
2017-06-26T23:04:57.076Z,12.60
2017-06-26T23:07:23.958Z,12.67
2017-06-26T23:09:50.806Z,12.40
2017-06-26T23:12:17.706Z,13.37
2017-06-26T23:14:44.519Z,12.77
2017-06-26T23:17:12.083Z,13.10
2017-06-26T23:19:38.978Z,14.47
2017-06-26T23:22:05.793Z,13.20
2017-06-26T23:24:32.826Z,12.07
2017-06-26T23:26:59.738Z,13.80
2017-06-26T23:29:26.646Z,12.63
2017-06-26T23:31:53.463Z,12.50
2017-06-26T23:34:20.359Z,14.80
2017-06-26T23:36:47.182Z,13.43
2017-06-26T23:39:14.097Z,13.67
2017-06-26T23:41:40.918Z,13.20
2017-06-26T23:44:08.573Z,13.23
2017-06-26T23:46:35.394Z,13.77
2017-06-26T23:49:02.230Z,13.17
2017-06-26T23:51:29.154Z,11.20
2017-06-26T23:53:55.970Z,13.23
2017-06-26T23:56:23.588Z,12.63
2017-06-26T23:58:50.406Z,12.73
